createdAt,value
2023-11-12T00:00:02.487Z,16.98
2023-11-12T00:02:31.462Z,17.95
2023-11-12T00:04:58.343Z,17.25
2023-11-12T00:07:25.218Z,17.35
2023-11-12T00:09:52.175Z,17.50
2023-11-12T00:12:20.792Z,17.10
2023-11-12T00:14:47.679Z,15.32
2023-11-12T00:17:15.106Z,14.77
2023-11-12T00:19:42.037Z,15.13
2023-11-12T00:22:09.320Z,13.57
2023-11-12T00:24:36.193Z,14.18
2023-11-12T00:27:02.996Z,13.77
2023-11-12T00:29:29.758Z,13.75
2023-11-12T00:31:56.669Z,12.73
2023-11-12T00:34:24.296Z,11.23
2023-11-12T00:36:51.004Z,11.02
2023-11-12T00:39:17.795Z,10.23
2023-11-12T00:41:44.516Z,10.52
2023-11-12T00:44:12.173Z,10.18
2023-11-12T00:46:42.229Z,10.05
2023-11-12T00:49:09.184Z,10.35
2023-11-12T00:51:37.008Z,10.90
2023-11-12T00:54:03.798Z,9.52
2023-11-12T00:56:30.554Z,9.52
2023-11-12T00:58:57.827Z,10.10
2023-11-12T01:01:24.652Z,10.20
2023-11-12T01:03:51.604Z,9.65
2023-11-12T01:06:18.362Z,8.77
2023-11-12T01:08:45.204Z,9.10
2023-11-12T01:11:12.514Z,10.25
2023-11-12T01:13:39.467Z,9.10
2023-11-12T01:16:06.282Z,8.60
2023-11-12T01:18:35.093Z,9.25
2023-11-12T01:21:01.886Z,9.18
2023-11-12T01:23:28.790Z,8.25
2023-11-12T01:25:56.023Z,8.60
2023-11-12T01:28:22.946Z,8.73
2023-11-12T01:30:50.028Z,8.70
2023-11-12T01:33:16.844Z,7.88
2023-11-12T01:35:43.576Z,8.70
2023-11-12T01:38:10.442Z,7.50
2023-11-12T01:40:37.484Z,7.47
2023-11-12T01:43:04.277Z,7.60
2023-11-12T01:45:31.051Z,6.45
2023-11-12T01:47:57.921Z,6.38
2023-11-12T01:50:24.697Z,6.72
2023-11-12T01:52:51.548Z,7.55
2023-11-12T01:55:18.294Z,6.38
2023-11-12T01:57:47.023Z,7.40
2023-11-12T02:00:17.476Z,6.65
2023-11-12T02:02:44.498Z,7.07
2023-11-12T02:05:11.431Z,6.72
2023-11-12T02:07:38.405Z,6.68
2023-11-12T02:10:14.722Z,7.13
2023-11-12T02:12:43.453Z,7.25
2023-11-12T02:15:10.182Z,6.50
2023-11-12T02:17:38.188Z,6.00
2023-11-12T02:20:04.930Z,6.40
2023-11-12T02:22:31.692Z,5.55
2023-11-12T02:24:58.439Z,5.80
2023-11-12T02:27:25.330Z,5.82
2023-11-12T02:29:52.090Z,5.75
2023-11-12T02:32:19.639Z,6.28
2023-11-12T02:34:46.752Z,5.25
2023-11-12T02:37:14.024Z,5.35
2023-11-12T02:39:43.966Z,5.32
2023-11-12T02:42:10.745Z,5.18
2023-11-12T02:44:40.563Z,5.18
2023-11-12T02:47:07.502Z,5.20
2023-11-12T02:49:34.782Z,5.05
2023-11-12T02:52:01.621Z,5.32
2023-11-12T02:54:28.347Z,5.32
2023-11-12T02:56:55.153Z,5.22
2023-11-12T02:59:21.902Z,5.90
2023-11-12T03:01:48.690Z,6.15
2023-11-12T03:04:15.484Z,5.45
2023-11-12T03:06:42.345Z,5.68
2023-11-12T03:09:10.759Z,5.88
2023-11-12T03:11:39.080Z,6.88
2023-11-12T03:14:05.808Z,6.00
2023-11-12T03:16:32.721Z,6.07
2023-11-12T03:19:01.535Z,6.93
2023-11-12T03:21:28.438Z,7.13
2023-11-12T03:23:56.322Z,7.10
2023-11-12T03:26:23.092Z,7.65
2023-11-12T03:28:49.794Z,7.47
2023-11-12T03:31:16.807Z,7.10
2023-11-12T03:33:43.583Z,6.93
2023-11-12T03:36:10.485Z,6.85
2023-11-12T03:38:38.640Z,7.05
2023-11-12T03:41:06.270Z,7.00
2023-11-12T03:43:33.094Z,6.60
2023-11-12T03:45:59.849Z,6.93
2023-11-12T03:48:26.619Z,7.03
2023-11-12T03:50:53.420Z,7.03
2023-11-12T03:53:20.114Z,7.10
2023-11-12T03:55:46.950Z,7.30
2023-11-12T03:58:14.351Z,6.63
2023-11-12T04:00:42.211Z,7.10
2023-11-12T04:03:09.201Z,6.15
2023-11-12T04:05:36.095Z,6.20
2023-11-12T04:08:02.875Z,6.57
2023-11-12T04:10:29.669Z,5.57
2023-11-12T04:12:56.453Z,5.90
2023-11-12T04:15:23.300Z,5.72
2023-11-12T04:17:50.034Z,5.90
2023-11-12T04:20:16.800Z,6.05
2023-11-12T04:22:43.725Z,5.85
2023-11-12T04:25:10.610Z,5.88
2023-11-12T04:27:39.230Z,5.47
2023-11-12T04:30:08.408Z,6.00
2023-11-12T04:32:36.734Z,5.82
2023-11-12T04:35:03.722Z,5.78
2023-11-12T04:37:30.595Z,6.00
2023-11-12T04:39:57.997Z,5.78
2023-11-12T04:42:24.836Z,5.60
2023-11-12T04:44:51.554Z,5.63
2023-11-12T04:47:18.252Z,5.93
2023-11-12T04:49:45.019Z,6.07
2023-11-12T04:52:11.715Z,5.93
2023-11-12T04:54:38.714Z,5.80
2023-11-12T04:57:05.562Z,6.05
2023-11-12T04:59:32.610Z,5.85
2023-11-12T05:02:00.960Z,6.20
2023-11-12T05:04:27.803Z,6.25
2023-11-12T05:06:54.488Z,5.95
2023-11-12T05:09:21.290Z,6.15
2023-11-12T05:11:48.065Z,6.25
2023-11-12T05:14:15.397Z,5.88
2023-11-12T05:16:42.191Z,5.45
2023-11-12T05:19:08.994Z,5.70
2023-11-12T05:21:35.825Z,6.00
2023-11-12T05:24:02.566Z,5.88
2023-11-12T05:26:29.301Z,6.25
2023-11-12T05:28:56.089Z,5.35
2023-11-12T05:31:23.874Z,5.22
2023-11-12T05:33:50.778Z,5.55
2023-11-12T05:36:17.621Z,5.78
2023-11-12T05:38:44.403Z,5.10
2023-11-12T05:41:11.275Z,5.22
2023-11-12T05:43:38.013Z,5.10
2023-11-12T05:46:04.781Z,4.70
2023-11-12T05:48:32.642Z,4.45
2023-11-12T05:51:01.252Z,5.10
2023-11-12T05:53:28.077Z,4.30
2023-11-12T05:55:54.821Z,4.35
2023-11-12T05:58:21.867Z,4.88
2023-11-12T06:00:48.676Z,4.85
2023-11-12T06:03:15.520Z,4.95
2023-11-12T06:05:42.395Z,5.47
2023-11-12T06:08:09.153Z,5.82
2023-11-12T06:10:36.471Z,5.38
2023-11-12T06:13:03.587Z,4.75
2023-11-12T06:15:30.426Z,5.28
2023-11-12T06:17:57.235Z,5.22
2023-11-12T06:20:26.725Z,5.72
2023-11-12T06:22:53.414Z,5.28
2023-11-12T06:25:20.226Z,6.13
2023-11-12T06:27:48.582Z,5.22
2023-11-12T06:30:15.450Z,5.95
2023-11-12T06:32:42.301Z,5.40
2023-11-12T06:35:09.103Z,6.13
2023-11-12T06:37:35.870Z,5.70
2023-11-12T06:40:02.601Z,5.55
2023-11-12T06:42:29.385Z,5.45
2023-11-12T06:44:56.138Z,5.28
2023-11-12T06:47:23.353Z,5.55
2023-11-12T06:49:50.077Z,5.57
2023-11-12T06:52:17.035Z,5.20
2023-11-12T06:54:43.823Z,5.55
2023-11-12T06:57:10.620Z,5.38
2023-11-12T06:59:37.473Z,5.20
2023-11-12T07:02:04.203Z,5.13
2023-11-12T07:04:31.668Z,5.22
2023-11-12T07:07:06.494Z,5.13
2023-11-12T07:09:41.165Z,5.13
2023-11-12T07:12:07.908Z,5.35
2023-11-12T07:14:34.692Z,5.72
2023-11-12T07:17:01.494Z,5.45
2023-11-12T07:19:28.272Z,5.57
2023-11-12T07:21:55.705Z,5.30
2023-11-12T07:24:22.522Z,5.63
2023-11-12T07:26:49.435Z,5.32
2023-11-12T07:29:16.386Z,6.57
2023-11-12T07:31:44.189Z,5.78
2023-11-12T07:34:11.074Z,5.88
2023-11-12T07:36:38.101Z,5.65
2023-11-12T07:39:04.837Z,5.72
2023-11-12T07:41:31.565Z,6.00
2023-11-12T07:43:58.310Z,5.68
2023-11-12T07:46:25.153Z,5.60
2023-11-12T07:48:52.020Z,5.85
2023-11-12T07:51:18.870Z,5.20
2023-11-12T07:53:45.647Z,5.57
2023-11-12T07:56:12.567Z,5.90
2023-11-12T07:58:39.279Z,5.40
2023-11-12T08:01:06.201Z,4.93
2023-11-12T08:03:33.053Z,5.03
2023-11-12T08:05:59.996Z,4.70
2023-11-12T08:08:27.651Z,4.70
2023-11-12T08:10:55.002Z,4.35
2023-11-12T08:13:21.767Z,4.18
2023-11-12T08:15:48.553Z,5.57
2023-11-12T08:18:15.404Z,4.93
2023-11-12T08:20:42.403Z,4.63
2023-11-12T08:23:09.183Z,4.85
2023-11-12T08:25:36.004Z,4.70
2023-11-12T08:28:03.353Z,5.18
2023-11-12T08:30:30.652Z,5.43
2023-11-12T08:32:57.519Z,5.65
2023-11-12T08:35:24.341Z,5.25
2023-11-12T08:37:51.175Z,5.78
2023-11-12T08:40:20.108Z,5.05
2023-11-12T08:42:47.291Z,5.57
2023-11-12T08:45:15.418Z,4.88
2023-11-12T08:47:42.270Z,5.05
2023-11-12T08:50:09.076Z,5.50
2023-11-12T08:52:37.509Z,5.28
2023-11-12T08:55:04.297Z,5.10
2023-11-12T08:57:31.086Z,4.82
2023-11-12T08:59:57.816Z,5.32
2023-11-12T09:02:24.636Z,5.05
2023-11-12T09:04:51.492Z,5.00
2023-11-12T09:07:18.311Z,4.82
2023-11-12T09:09:45.268Z,4.75
2023-11-12T09:12:13.013Z,4.53
2023-11-12T09:14:39.873Z,4.40
2023-11-12T09:17:08.036Z,4.40
2023-11-12T09:19:34.811Z,4.60
2023-11-12T09:22:01.710Z,4.38
2023-11-12T09:24:28.973Z,4.45
2023-11-12T09:26:55.787Z,4.32
2023-11-12T09:29:22.539Z,4.13
2023-11-12T09:31:49.581Z,4.70
2023-11-12T09:34:17.219Z,4.20
2023-11-12T09:36:44.006Z,4.07
2023-11-12T09:39:14.202Z,4.20
2023-11-12T09:41:41.021Z,3.67
2023-11-12T09:44:09.024Z,4.25
2023-11-12T09:46:36.562Z,4.20
2023-11-12T09:49:05.257Z,4.75
2023-11-12T09:51:32.424Z,5.00
2023-11-12T09:53:59.135Z,4.65
2023-11-12T09:56:26.185Z,4.53
2023-11-12T09:58:53.930Z,5.10
2023-11-12T10:01:21.669Z,4.65
2023-11-12T10:03:49.577Z,4.82
2023-11-12T10:06:18.171Z,4.70
2023-11-12T10:08:44.968Z,4.65
2023-11-12T10:11:13.827Z,4.70
2023-11-12T10:13:40.685Z,5.80
2023-11-12T10:16:08.107Z,4.75
2023-11-12T10:18:35.594Z,4.13
2023-11-12T10:21:02.363Z,5.00
2023-11-12T10:23:33.192Z,4.60
2023-11-12T10:26:00.738Z,4.25
2023-11-12T10:28:27.457Z,4.43
2023-11-12T10:30:54.219Z,4.28
2023-11-12T10:33:29.796Z,4.20
2023-11-12T10:35:59.439Z,4.32
2023-11-12T10:38:26.315Z,4.15
2023-11-12T10:40:53.098Z,4.32
2023-11-12T10:43:19.895Z,4.65
2023-11-12T10:45:46.623Z,5.55
2023-11-12T10:48:13.549Z,4.90
2023-11-12T10:50:40.594Z,4.90
2023-11-12T10:53:07.456Z,4.88
2023-11-12T10:55:34.954Z,4.78
2023-11-12T10:58:01.832Z,5.57
2023-11-12T11:00:28.620Z,5.22
2023-11-12T11:02:55.371Z,4.85
2023-11-12T11:05:24.550Z,4.97
2023-11-12T11:07:52.616Z,4.32
2023-11-12T11:10:20.691Z,4.90
2023-11-12T11:12:47.613Z,4.30
2023-11-12T11:15:14.534Z,4.50
2023-11-12T11:17:41.367Z,4.45
2023-11-12T11:20:12.887Z,3.97
2023-11-12T11:22:39.941Z,4.20
2023-11-12T11:25:06.666Z,4.03
2023-11-12T11:27:33.508Z,3.60
2023-11-12T11:30:01.302Z,3.60
2023-11-12T11:32:28.160Z,4.05
2023-11-12T11:34:55.051Z,4.22
2023-11-12T11:37:22.768Z,4.10
2023-11-12T11:39:49.678Z,4.43
2023-11-12T11:42:16.533Z,4.78
2023-11-12T11:44:43.923Z,4.25
2023-11-12T11:47:10.755Z,5.53
2023-11-12T11:49:37.595Z,4.75
2023-11-12T11:52:04.438Z,4.50
2023-11-12T11:54:31.462Z,4.75
2023-11-12T11:56:58.317Z,4.65
2023-11-12T11:59:25.475Z,5.10
2023-11-12T12:01:54.709Z,4.50
2023-11-12T12:04:24.555Z,4.45
2023-11-12T12:06:51.506Z,4.35
2023-11-12T12:09:18.722Z,4.40
2023-11-12T12:11:46.111Z,4.80
2023-11-12T12:14:12.920Z,4.20
2023-11-12T12:16:46.317Z,3.83
2023-11-12T12:19:13.569Z,2.95
2023-11-12T12:21:40.431Z,2.33
2023-11-12T12:24:08.127Z,2.13
2023-11-12T12:26:35.972Z,1.92
2023-11-12T12:29:02.754Z,1.70
2023-11-12T12:31:30.023Z,2.30
2023-11-12T12:33:56.829Z,1.88
2023-11-12T12:36:24.017Z,2.15
2023-11-12T12:38:50.864Z,1.90
2023-11-12T12:41:17.583Z,1.98
2023-11-12T12:43:44.330Z,2.13
2023-11-12T12:46:11.319Z,1.75
2023-11-12T12:48:38.115Z,1.88
2023-11-12T12:51:07.358Z,2.08
2023-11-12T12:53:34.565Z,2.05
2023-11-12T12:56:01.267Z,1.80
2023-11-12T12:58:28.117Z,1.92
2023-11-12T13:00:57.849Z,1.73
2023-11-12T13:03:28.251Z,2.10
2023-11-12T13:05:56.971Z,1.75
2023-11-12T13:08:24.552Z,2.00
2023-11-12T13:10:51.457Z,1.55
2023-11-12T13:13:22.970Z,2.33
2023-11-12T13:15:49.940Z,1.70
2023-11-12T13:18:17.000Z,1.98
2023-11-12T13:20:45.364Z,1.75
2023-11-12T13:23:12.052Z,1.73
2023-11-12T13:25:39.037Z,1.67
2023-11-12T13:28:08.853Z,1.90
2023-11-12T13:30:37.387Z,1.75
2023-11-12T13:33:05.394Z,1.55
2023-11-12T13:35:32.386Z,1.58
2023-11-12T13:37:59.323Z,1.80
2023-11-12T13:40:26.588Z,1.60
2023-11-12T13:42:53.495Z,1.50
2023-11-12T13:45:20.413Z,2.00
2023-11-12T13:47:47.402Z,1.70
2023-11-12T13:50:15.418Z,1.67
2023-11-12T13:52:44.091Z,2.25
2023-11-12T13:55:19.447Z,1.80
2023-11-12T13:57:47.162Z,1.80
2023-11-12T14:00:17.002Z,1.73
2023-11-12T14:02:43.843Z,1.63
2023-11-12T14:05:10.633Z,1.98
2023-11-12T14:07:40.071Z,2.00
2023-11-12T14:10:09.496Z,2.15
2023-11-12T14:12:38.464Z,2.00
2023-11-12T14:15:09.792Z,1.70
2023-11-12T14:17:37.321Z,1.95
2023-11-12T14:20:07.377Z,1.90
2023-11-12T14:22:35.698Z,2.15
2023-11-12T14:25:04.619Z,1.80
2023-11-12T14:27:31.893Z,1.55
2023-11-12T14:29:58.752Z,1.60
2023-11-12T14:32:25.644Z,1.80
2023-11-12T14:34:52.479Z,1.60
2023-11-12T14:37:19.536Z,2.65
2023-11-12T14:39:46.330Z,3.95
2023-11-12T14:42:13.191Z,3.30
2023-11-12T14:44:39.944Z,3.63
2023-11-12T14:47:07.542Z,4.63
2023-11-12T14:49:34.414Z,4.95
2023-11-12T14:52:01.306Z,5.20
2023-11-12T14:54:30.555Z,4.32
2023-11-12T14:56:57.617Z,3.72
2023-11-12T14:59:24.405Z,3.25
2023-11-12T15:01:52.066Z,3.80
2023-11-12T15:04:19.276Z,3.20
2023-11-12T15:06:46.143Z,2.45
2023-11-12T15:09:12.956Z,2.13
2023-11-12T15:11:41.722Z,2.60
2023-11-12T15:14:08.703Z,2.60
2023-11-12T15:16:35.771Z,2.40
2023-11-12T15:19:02.990Z,2.13
2023-11-12T15:21:29.907Z,2.58
2023-11-12T15:23:56.715Z,2.33
2023-11-12T15:26:23.541Z,1.95
2023-11-12T15:28:51.935Z,1.80
2023-11-12T15:31:19.526Z,2.20
2023-11-12T15:33:46.469Z,2.50
2023-11-12T15:36:13.630Z,2.03
2023-11-12T15:38:40.411Z,2.08
2023-11-12T15:41:07.537Z,2.05
2023-11-12T15:43:34.460Z,1.80
2023-11-12T15:46:01.872Z,2.40
2023-11-12T15:48:32.144Z,2.20
2023-11-12T15:50:59.117Z,2.60
2023-11-12T15:53:31.466Z,2.58
2023-11-12T15:55:59.933Z,2.47
2023-11-12T15:58:26.922Z,3.20
2023-11-12T16:00:53.981Z,2.42
2023-11-12T16:03:21.042Z,2.20
2023-11-12T16:05:48.028Z,2.50
2023-11-12T16:08:15.508Z,2.60
2023-11-12T16:10:42.414Z,2.63
2023-11-12T16:13:13.260Z,2.80
2023-11-12T16:15:40.074Z,2.50
2023-11-12T16:18:08.201Z,2.40
2023-11-12T16:20:35.105Z,2.60
2023-11-12T16:23:01.940Z,2.85
2023-11-12T16:25:28.733Z,3.00
2023-11-12T16:27:55.564Z,3.40
2023-11-12T16:30:25.496Z,2.85
2023-11-12T16:32:52.600Z,2.63
2023-11-12T16:35:21.068Z,2.75
2023-11-12T16:37:49.790Z,2.67
2023-11-12T16:40:17.236Z,2.67
2023-11-12T16:42:44.688Z,2.53
2023-11-12T16:45:12.715Z,2.60
2023-11-12T16:47:39.774Z,2.42
2023-11-12T16:50:08.042Z,2.58
2023-11-12T16:52:34.802Z,2.60
2023-11-12T16:55:01.628Z,2.50
2023-11-12T16:57:28.415Z,2.50
2023-11-12T16:59:55.300Z,2.22
2023-11-12T17:02:22.390Z,2.58
2023-11-12T17:04:50.267Z,2.20
2023-11-12T17:07:17.063Z,2.33
2023-11-12T17:09:43.958Z,2.17
2023-11-12T17:12:13.942Z,2.15
2023-11-12T17:14:40.757Z,2.10
2023-11-12T17:17:07.508Z,2.05
2023-11-12T17:19:36.576Z,2.45
2023-11-12T17:22:03.460Z,2.15
2023-11-12T17:24:30.292Z,2.70
2023-11-12T17:26:58.015Z,2.85
2023-11-12T17:29:25.430Z,2.47
2023-11-12T17:31:52.231Z,2.40
2023-11-12T17:34:20.101Z,2.63
2023-11-12T17:36:47.055Z,2.38
2023-11-12T17:39:17.658Z,3.00
2023-11-12T17:41:47.813Z,2.80
2023-11-12T17:44:14.747Z,1.95
2023-11-12T17:46:42.680Z,2.65
2023-11-12T17:49:09.672Z,2.88
2023-11-12T17:51:36.563Z,2.60
2023-11-12T17:54:04.162Z,2.55
2023-11-12T17:56:30.929Z,2.45
2023-11-12T17:58:57.660Z,3.13
2023-11-12T18:01:24.683Z,5.18
2023-11-12T18:03:55.344Z,7.18
2023-11-12T18:06:22.305Z,8.90
2023-11-12T18:08:49.037Z,8.70
2023-11-12T18:11:15.839Z,7.75
2023-11-12T18:13:42.585Z,6.95
2023-11-12T18:16:09.453Z,6.20
2023-11-12T18:18:36.277Z,3.45
2023-11-12T18:21:03.027Z,2.70
2023-11-12T18:23:29.764Z,2.63
2023-11-12T18:25:56.536Z,2.33
2023-11-12T18:28:25.183Z,2.38
2023-11-12T18:30:54.978Z,2.42
2023-11-12T18:33:21.902Z,3.10
2023-11-12T18:35:48.686Z,2.67
2023-11-12T18:38:15.541Z,4.18
2023-11-12T18:40:42.382Z,3.25
2023-11-12T18:43:11.911Z,2.40
2023-11-12T18:45:39.125Z,2.90
2023-11-12T18:48:12.033Z,3.20
2023-11-12T18:50:38.985Z,2.50
2023-11-12T18:53:05.991Z,3.60
2023-11-12T18:55:32.955Z,2.58
2023-11-12T18:58:00.105Z,2.80
2023-11-12T19:00:26.917Z,3.58
2023-11-12T19:02:54.822Z,4.10
2023-11-12T19:05:21.919Z,4.55
2023-11-12T19:07:48.803Z,4.35
2023-11-12T19:10:15.657Z,3.35
2023-11-12T19:12:42.560Z,3.80
2023-11-12T19:15:09.542Z,4.32
2023-11-12T19:17:36.494Z,3.38
2023-11-12T19:20:05.613Z,2.83
2023-11-12T19:22:33.348Z,2.80
2023-11-12T19:25:00.171Z,3.20
2023-11-12T19:27:27.845Z,2.90
2023-11-12T19:30:02.679Z,3.20
2023-11-12T19:32:35.371Z,2.60
2023-11-12T19:35:02.141Z,3.05
2023-11-12T19:37:31.555Z,2.72
2023-11-12T19:39:58.629Z,3.42
2023-11-12T19:42:27.521Z,3.42
2023-11-12T19:44:54.328Z,3.50
2023-11-12T19:47:21.756Z,4.30
2023-11-12T19:49:49.318Z,3.55
2023-11-12T19:52:18.052Z,6.15
2023-11-12T19:54:45.067Z,5.13
2023-11-12T19:57:11.910Z,5.25
2023-11-12T19:59:38.638Z,4.63
2023-11-12T20:02:07.536Z,4.55
2023-11-12T20:04:34.441Z,3.65
2023-11-12T20:07:01.305Z,4.50
2023-11-12T20:09:28.101Z,4.70
2023-11-12T20:11:54.885Z,4.45
2023-11-12T20:14:21.592Z,4.30
2023-11-12T20:16:48.719Z,5.70
2023-11-12T20:19:15.685Z,5.32
2023-11-12T20:21:42.633Z,4.80
2023-11-12T20:24:12.813Z,3.30
2023-11-12T20:26:39.503Z,3.45
2023-11-12T20:29:06.330Z,3.47
2023-11-12T20:31:33.154Z,3.35
2023-11-12T20:34:00.480Z,3.70
2023-11-12T20:36:27.298Z,3.42
2023-11-12T20:38:54.085Z,3.58
2023-11-12T20:41:21.585Z,3.67
2023-11-12T20:43:48.397Z,3.85
2023-11-12T20:46:16.527Z,3.50
2023-11-12T20:48:43.413Z,3.95
2023-11-12T20:51:10.144Z,4.20
2023-11-12T20:53:36.863Z,4.53
2023-11-12T20:56:03.627Z,4.53
2023-11-12T20:58:30.514Z,4.95
2023-11-12T21:00:59.710Z,4.70
2023-11-12T21:03:27.895Z,4.20
2023-11-12T21:05:54.703Z,4.43
2023-11-12T21:08:23.161Z,4.28
2023-11-12T21:10:49.990Z,4.68
2023-11-12T21:13:16.763Z,5.38
2023-11-12T21:15:44.116Z,5.30
2023-11-12T21:18:12.795Z,5.93
2023-11-12T21:20:39.748Z,6.18
2023-11-12T21:23:06.510Z,5.63
2023-11-12T21:25:33.318Z,6.80
2023-11-12T21:28:00.158Z,6.97
2023-11-12T21:30:27.321Z,6.00
2023-11-12T21:32:54.323Z,8.02
2023-11-12T21:35:21.229Z,9.35
2023-11-12T21:37:47.987Z,6.93
2023-11-12T21:40:15.191Z,5.70
2023-11-12T21:42:43.804Z,5.97
2023-11-12T21:45:11.575Z,4.60
2023-11-12T21:47:39.957Z,4.97
2023-11-12T21:50:07.620Z,4.47
2023-11-12T21:52:34.402Z,4.50
2023-11-12T21:55:01.219Z,4.70
2023-11-12T21:57:28.865Z,4.68
2023-11-12T21:59:57.123Z,5.18
2023-11-12T22:02:24.056Z,5.18
2023-11-12T22:04:51.495Z,5.25
2023-11-12T22:07:18.420Z,5.28
2023-11-12T22:09:45.649Z,5.10
2023-11-12T22:12:12.492Z,4.80
2023-11-12T22:14:39.264Z,5.07
2023-11-12T22:17:06.004Z,4.60
2023-11-12T22:19:33.015Z,4.63
2023-11-12T22:22:00.421Z,5.03
2023-11-12T22:24:27.340Z,6.05
2023-11-12T22:26:54.831Z,5.60
2023-11-12T22:29:21.598Z,5.63
2023-11-12T22:31:48.531Z,5.90
2023-11-12T22:34:16.118Z,5.65
2023-11-12T22:36:43.024Z,5.95
2023-11-12T22:39:09.763Z,5.53
2023-11-12T22:41:36.885Z,4.85
2023-11-12T22:44:03.802Z,4.55
2023-11-12T22:46:30.740Z,5.32
2023-11-12T22:48:57.520Z,5.72
2023-11-12T22:51:25.683Z,5.55
2023-11-12T22:53:53.400Z,5.97
2023-11-12T22:56:20.187Z,4.78
2023-11-12T22:58:47.293Z,5.22
2023-11-12T23:01:15.697Z,5.15
2023-11-12T23:03:48.139Z,5.30
2023-11-12T23:06:15.149Z,5.18
2023-11-12T23:08:42.629Z,5.43
2023-11-12T23:11:09.451Z,5.10
2023-11-12T23:13:36.319Z,5.18
2023-11-12T23:16:03.057Z,5.38
2023-11-12T23:18:29.880Z,5.07
2023-11-12T23:21:03.327Z,4.88
2023-11-12T23:23:35.977Z,4.85
2023-11-12T23:26:03.723Z,5.05
2023-11-12T23:28:30.487Z,5.10
2023-11-12T23:30:59.923Z,5.25
2023-11-12T23:33:26.985Z,5.60
2023-11-12T23:35:54.084Z,5.55
2023-11-12T23:38:20.856Z,5.80
2023-11-12T23:40:47.608Z,5.15
2023-11-12T23:43:15.032Z,5.25
2023-11-12T23:45:41.902Z,5.65
2023-11-12T23:48:08.755Z,4.95
2023-11-12T23:50:35.841Z,4.75
2023-11-12T23:53:02.642Z,5.05
2023-11-12T23:55:29.563Z,6.20
2023-11-12T23:57:56.364Z,5.30
